Time;durP1;ratioP1;P1;durP2;ratioP2;P2;SDS_P1;SDS_P2;PMS_P1;PMS_P2;Temp;Humidity;BMP_temperature;BMP_pressure;BME280_temperature;BME280_humidity;BME280_pressure;Samples;Min_cycle;Max_cycle;Signal;HPM_P1;HPM_P2
2023/10/10 00:00:55;;;;;;;21.95;7.60;;;;;;;8.90;52.32;100847.27;125514;1099;104458;-82
2023/10/10 00:03:39;;;;;;;23.20;8.10;;;;;;;8.92;52.84;100842.11;125466;1099;102067;-81
2023/10/10 00:06:13;;;;;;;23.30;8.13;;;;;;;8.90;52.93;100843.77;125375;1099;104188;-80
2023/10/10 00:08:44;;;;;;;;;;;;;;;8.89;53.00;100839.34;125369;1099;104190;-81
2023/10/10 00:11:16;;;;;;;22.13;7.97;;;;;;;8.88;52.52;100827.07;125377;1099;101810;-81
2023/10/10 00:13:52;;;;;;;23.80;8.60;;;;;;;8.84;52.58;100820.80;125576;1099;102036;-81
2023/10/10 00:16:26;;;;;;;21.33;7.90;;;;;;;8.81;52.53;100820.66;125378;1099;104188;-81
2023/10/10 00:18:59;;;;;;;22.75;8.35;;;;;;;8.79;52.55;100828.44;124935;1099;102232;-82
2023/10/10 00:21:30;;;;;;;22.97;8.53;;;;;;;8.78;52.98;100833.59;125516;1099;104236;-80
2023/10/10 00:24:03;;;;;;;21.37;8.53;;;;;;;8.78;52.98;100830.97;125037;1099;102128;-82
2023/10/10 00:26:35;;;;;;;22.07;7.95;;;;;;;8.76;52.82;100835.25;125298;1099;104642;-82
2023/10/10 00:29:06;;;;;;;20.00;7.33;;;;;;;8.69;53.07;100839.27;125510;1099;102083;-82
2023/10/10 00:31:43;;;;;;;20.87;7.57;;;;;;;8.62;53.30;100834.58;125440;1099;104197;-81
2023/10/10 00:34:15;;;;;;;19.50;7.80;;;;;;;8.56;53.77;100836.89;124939;1099;104287;-81
2023/10/10 00:36:47;;;;;;;21.00;7.23;;;;;;;8.52;53.50;100833.20;125546;1099;102087;-81
2023/10/10 00:39:30;;;;;;;23.53;7.27;;;;;;;8.50;53.77;100829.63;125655;1099;103023;-81
2023/10/10 00:42:05;;;;;;;19.33;7.10;;;;;;;8.50;53.64;100811.31;125207;1099;104312;-81
2023/10/10 00:44:40;;;;;;;18.53;6.97;;;;;;;8.54;54.15;100818.50;125600;1099;104162;-81
2023/10/10 00:47:13;;;;;;;17.37;6.43;;;;;;;8.57;53.77;100813.42;125517;1099;104208;-81
2023/10/10 00:49:45;;;;;;;15.20;6.20;;;;;;;8.58;54.20;100809.08;125584;1099;101923;-82
2023/10/10 00:52:18;;;;;;;18.40;6.40;;;;;;;8.52;53.78;100808.78;125653;1099;104614;-81
2023/10/10 00:55:06;;;;;;;18.93;6.10;;;;;;;8.48;53.83;100820.81;125723;1099;101948;-82
2023/10/10 00:57:37;;;;;;;16.35;6.70;;;;;;;8.42;54.54;100823.09;125507;1099;101782;-81
2023/10/10 01:00:15;;;;;;;17.40;6.03;;;;;;;8.42;54.50;100820.48;125544;1099;104163;-81
2023/10/10 01:02:49;;;;;;;15.67;5.90;;;;;;;8.41;54.49;100822.20;125521;1099;101724;-81
2023/10/10 01:05:23;;;;;;;15.00;5.90;;;;;;;8.40;53.98;100817.79;125002;1099;104648;-81
2023/10/10 01:07:53;;;;;;;;;;;;;;;8.37;54.20;100816.75;124918;1099;104217;-81
2023/10/10 01:10:25;;;;;;;15.23;5.63;;;;;;;8.36;54.15;100809.72;125238;1099;101762;-81
2023/10/10 01:12:58;;;;;;;15.07;6.00;;;;;;;8.34;54.41;100816.59;125542;1099;104313;-81
2023/10/10 01:15:34;;;;;;;13.03;5.67;;;;;;;8.34;54.32;100811.37;125548;1098;101827;-81
2023/10/10 01:18:13;;;;;;;18.00;6.10;;;;;;;8.33;54.45;100810.45;125198;1099;101979;-81
2023/10/10 01:20:49;;;;;;;16.77;5.67;;;;;;;8.33;54.68;100820.91;125579;1099;102268;-81
2023/10/10 01:23:26;;;;;;;14.47;5.50;;;;;;;8.34;54.39;100811.37;125612;1099;102076;-81
2023/10/10 01:26:05;;;;;;;17.20;6.10;;;;;;;8.34;54.51;100803.52;125521;1099;102329;-81
2023/10/10 01:28:39;;;;;;;16.33;6.13;;;;;;;8.32;54.68;100811.29;125523;1099;102001;-81
2023/10/10 01:31:11;;;;;;;16.03;6.17;;;;;;;8.32;54.41;100818.22;124987;1099;104217;-81
2023/10/10 01:33:47;;;;;;;15.20;5.50;;;;;;;8.29;55.05;100818.98;124828;1102;104284;-82
2023/10/10 01:36:22;;;;;;;15.73;6.27;;;;;;;8.27;54.75;100817.98;124978;1099;104252;-80
2023/10/10 01:39:19;;;;;;;16.90;5.63;;;;;;;8.25;54.99;100823.14;125169;1099;110832;-80
2023/10/10 01:41:51;;;;;;;17.20;6.23;;;;;;;8.24;54.89;100829.21;125288;1099;101975;-81
2023/10/10 01:44:23;;;;;;;14.53;5.90;;;;;;;8.23;54.82;100826.52;125294;1099;104176;-81
2023/10/10 01:46:54;;;;;;;17.10;5.87;;;;;;;8.24;55.34;100833.52;124955;1100;102012;-81
2023/10/10 01:49:29;;;;;;;18.00;5.80;;;;;;;8.24;54.71;100829.21;124916;1099;104341;-81
2023/10/10 01:52:00;;;;;;;15.67;5.40;;;;;;;8.25;55.15;100827.48;124992;1099;101799;-81
2023/10/10 01:54:40;;;;;;;14.97;5.63;;;;;;;8.23;55.04;100832.63;125685;1099;104155;-81
2023/10/10 01:57:21;;;;;;;14.43;5.80;;;;;;;8.22;55.11;100833.44;125608;1099;102154;-80
2023/10/10 01:59:57;;;;;;;14.77;6.13;;;;;;;8.24;55.70;100831.83;125163;1099;101898;-81
2023/10/10 02:02:30;;;;;;;16.47;6.03;;;;;;;8.24;55.04;100831.83;125014;1099;101895;-81
2023/10/10 02:05:04;;;;;;;17.60;5.50;;;;;;;8.22;55.75;100835.17;125422;1098;101916;-81
2023/10/10 02:07:35;;;;;;;12.75;5.67;;;;;;;8.21;55.52;100830.75;125469;1099;101906;-81
2023/10/10 02:10:13;;;;;;;15.07;5.27;;;;;;;8.21;55.49;100831.67;125569;1099;104354;-81
2023/10/10 02:12:45;;;;;;;18.13;5.83;;;;;;;8.20;55.59;100829.86;125496;1099;102185;-81
2023/10/10 02:15:18;;;;;;;16.80;5.40;;;;;;;8.19;55.79;100828.06;125586;1099;104169;-81
2023/10/10 02:17:54;;;;;;;16.97;5.67;;;;;;;8.18;55.39;100825.36;125435;1099;104210;-81
2023/10/10 02:20:49;;;;;;;19.00;6.03;;;;;;;8.20;55.50;100828.98;125517;1099;104363;-81
2023/10/10 02:23:31;;;;;;;22.75;5.95;;;;;;;8.19;55.60;100830.67;125336;1099;104278;-82
2023/10/10 02:26:07;;;;;;;15.63;5.87;;;;;;;8.19;56.11;100832.40;125633;1099;101839;-81
2023/10/10 02:28:57;;;;;;;16.70;6.17;;;;;;;8.18;56.23;100828.90;125029;1099;104207;-81
2023/10/10 02:31:29;;;;;;;14.23;5.27;;;;;;;8.19;55.99;100832.40;125529;1099;102033;-81
2023/10/10 02:34:03;;;;;;;14.33;5.57;;;;;;;8.17;56.50;100831.44;125567;1099;101861;-82
2023/10/10 02:36:34;;;;;;;19.47;5.77;;;;;;;8.14;55.84;100829.55;125543;1099;104166;-81
2023/10/10 02:39:28;;;;;;;15.77;5.63;;;;;;;8.14;56.42;100833.89;125419;1099;102320;-81
2023/10/10 02:42:03;;;;;;;11.90;5.07;;;;;;;8.11;56.03;100839.84;125078;1099;101884;-80
2023/10/10 02:44:46;;;;;;;15.23;5.10;;;;;;;8.09;56.24;100842.39;124997;1099;104182;-80
2023/10/10 02:47:30;;;;;;;13.32;5.40;;;;;;;8.09;56.14;100841.50;125387;1099;102086;-81
2023/10/10 02:50:09;;;;;;;11.17;4.90;;;;;;;8.10;56.47;100831.13;125090;1099;102176;-79
2023/10/10 02:52:45;;;;;;;16.67;5.77;;;;;;;8.12;56.46;100832.89;124921;1099;101887;-81
2023/10/10 02:55:22;;;;;;;17.13;5.60;;;;;;;8.12;56.49;100839.05;125598;1098;104265;-80
2023/10/10 02:57:54;;;;;;;12.87;5.20;;;;;;;8.07;56.54;100837.89;125519;1099;104172;-80
2023/10/10 03:00:29;;;;;;;14.97;5.37;;;;;;;8.05;56.75;100835.19;125292;1099;104390;-81
2023/10/10 03:03:03;;;;;;;14.37;5.20;;;;;;;8.05;56.99;100836.92;125139;1099;104268;-81
2023/10/10 03:05:43;;;;;;;12.68;5.12;;;;;;;8.06;56.39;100836.11;125307;1099;102083;-81
2023/10/10 03:08:17;;;;;;;15.60;5.17;;;;;;;8.05;56.78;100829.97;125263;1099;104175;-82
2023/10/10 03:11:00;;;;;;;14.73;5.45;;;;;;;8.01;57.01;100830.65;124981;1099;110834;-81
2023/10/10 03:13:36;;;;;;;16.80;5.53;;;;;;;7.98;56.96;100833.11;124976;1099;104179;-80
2023/10/10 03:16:41;;;;;;;16.23;5.50;;;;;;;7.98;57.30;100821.73;125000;1099;102043;-81
2023/10/10 03:19:27;;;;;;;11.90;5.47;;;;;;;7.98;57.21;100830.49;125087;1099;104271;-81
2023/10/10 03:25:06;;;;;;;16.50;5.60;;;;;;;8.01;56.87;100832.34;125493;1099;102197;-81
2023/10/10 03:27:49;;;;;;;11.00;4.70;;;;;;;7.99;57.20;100831.38;125470;1099;102628;-80
2023/10/10 03:30:31;;;;;;;18.90;5.20;;;;;;;7.97;57.00;100848.70;125241;1098;104341;-81
2023/10/10 03:33:10;;;;;;;14.33;5.90;;;;;;;7.96;56.99;100841.67;125537;1098;104217;-80
2023/10/10 03:36:05;;;;;;;16.97;6.90;;;;;;;7.94;57.34;100849.44;125257;1099;104169;-79
2023/10/10 03:39:16;;;;;;;18.73;6.85;;;;;;;7.95;57.15;100852.94;125442;1099;104220;-79
2023/10/10 05:23:48;;;;;;;17.57;5.30;;;;;;;8.44;58.94;100960.08;125313;1099;102463;-77
2023/10/10 05:26:20;;;;;;;22.90;5.40;;;;;;;8.52;58.82;100958.75;124893;1099;104230;-77
2023/10/10 05:28:52;;;;;;;18.65;5.60;;;;;;;8.56;59.06;100963.33;125223;1099;104281;-75
2023/10/10 05:31:27;;;;;;;13.53;5.13;;;;;;;8.59;59.08;100970.45;125335;1099;102363;-79
2023/10/10 05:33:56;;;;;;;;;;;;;;;8.58;59.21;100968.64;125348;1099;104149;-77
2023/10/10 05:36:28;;;;;;;13.70;5.30;;;;;;;8.52;59.05;100969.22;124424;1099;101988;-76
2023/10/10 05:39:00;;;;;;;22.23;5.47;;;;;;;8.49;59.38;100983.86;125535;1099;104198;-78
2023/10/10 05:41:32;;;;;;;14.23;4.80;;;;;;;8.44;59.44;100971.43;125371;1099;102232;-79
2023/10/10 05:44:04;;;;;;;19.63;5.33;;;;;;;8.47;59.17;100970.70;125398;1098;103685;-77
2023/10/10 05:46:36;;;;;;;22.00;5.60;;;;;;;8.55;59.25;100968.48;125175;1099;102038;-77
2023/10/10 05:49:07;;;;;;;18.70;5.33;;;;;;;8.58;58.91;100974.77;125150;1099;104245;-77
2023/10/10 05:51:40;;;;;;;15.97;5.53;;;;;;;8.48;59.07;100966.36;125024;1099;104274;-74
2023/10/10 05:54:11;;;;;;;15.50;5.17;;;;;;;8.53;59.23;100986.72;124915;1099;104054;-77
2023/10/10 05:56:46;;;;;;;14.77;5.50;;;;;;;8.50;59.32;100996.13;125069;1099;102022;-75
2023/10/10 05:59:17;;;;;;;16.70;5.30;;;;;;;8.49;59.68;100991.70;124791;1099;102028;-79
2023/10/10 06:01:49;;;;;;;13.77;4.90;;;;;;;8.48;59.01;100992.52;124489;1102;103446;-76
2023/10/10 06:04:21;;;;;;;20.00;5.63;;;;;;;8.50;59.63;100990.90;124803;1099;104399;-76
2023/10/10 06:07:07;;;;;;;20.27;5.43;;;;;;;8.53;59.65;100991.95;125309;1099;102416;-77
2023/10/10 06:09:44;;;;;;;21.37;5.27;;;;;;;8.57;59.76;100991.30;124659;1100;104254;-75
2023/10/10 06:12:18;;;;;;;15.77;4.63;;;;;;;8.61;59.67;100995.84;124652;1099;102119;-78
2023/10/10 06:14:50;;;;;;;18.85;5.22;;;;;;;8.62;60.04;101002.88;124919;1099;118720;-78
2023/10/10 06:17:24;;;;;;;15.93;4.80;;;;;;;8.63;59.61;101004.70;125960;1098;101983;-76
2023/10/10 06:19:57;;;;;;;15.40;5.37;;;;;;;8.67;60.02;101007.47;125369;1102;103383;-79
2023/10/10 06:22:31;;;;;;;17.77;5.07;;;;;;;8.75;59.24;101009.64;125454;1099;104353;-75
2023/10/10 06:25:05;;;;;;;17.00;5.63;;;;;;;8.82;59.52;101013.48;125552;1099;102080;-77
2023/10/10 06:27:54;;;;;;;14.80;4.60;;;;;;;8.88;59.58;101013.80;124546;1099;101942;-75
2023/10/10 06:30:28;;;;;;;15.83;5.43;;;;;;;8.90;59.42;101011.27;124518;1099;102153;-75
2023/10/10 06:33:09;;;;;;;14.67;4.77;;;;;;;8.93;59.23;101016.66;126015;1098;105508;-73
2023/10/10 06:35:40;;;;;;;14.77;5.20;;;;;;;8.95;59.46;101012.38;125206;1099;110770;-74
2023/10/10 06:38:12;;;;;;;13.57;5.20;;;;;;;8.98;59.23;101010.80;125697;1099;104220;-76
2023/10/10 06:40:53;;;;;;;15.87;5.67;;;;;;;9.04;59.40;101009.30;126317;1098;101951;-76
2023/10/10 06:43:32;;;;;;;22.67;5.50;;;;;;;9.10;59.54;100999.14;125917;1099;103113;-79
2023/10/10 06:46:23;;;;;;;19.47;5.73;;;;;;;9.13;59.13;101009.77;126340;1098;104192;-79
2023/10/10 06:49:04;;;;;;;21.70;5.73;;;;;;;9.17;59.04;101017.84;125417;1099;102130;-77
2023/10/10 06:51:40;;;;;;;14.10;5.13;;;;;;;9.24;59.59;101018.16;126703;1098;101804;-75
2023/10/10 06:54:26;;;;;;;15.03;5.40;;;;;;;9.30;58.93;101007.98;125081;1099;102012;-76
2023/10/10 06:57:06;;;;;;;16.23;5.27;;;;;;;9.42;59.17;101023.41;125277;1099;102428;-75
2023/10/10 06:59:37;;;;;;;17.10;4.90;;;;;;;9.49;59.41;101028.10;125152;1099;102327;-74
2023/10/10 07:02:20;;;;;;;17.73;5.53;;;;;;;9.56;59.29;101030.20;126021;1098;101775;-76
2023/10/10 07:04:57;;;;;;;17.30;5.87;;;;;;;9.66;58.87;101031.53;125294;1099;101897;-73
2023/10/10 07:07:29;;;;;;;16.80;5.43;;;;;;;9.72;59.21;101039.69;124880;1099;104338;-75
2023/10/10 07:10:09;;;;;;;18.53;5.70;;;;;;;9.79;58.55;101040.91;125331;1099;104272;-74
2023/10/10 07:12:47;;;;;;;19.53;5.73;;;;;;;9.84;58.50;101040.28;124774;1099;104050;-76
2023/10/10 07:15:22;;;;;;;18.90;5.23;;;;;;;9.87;58.25;101040.42;124962;1099;101882;-73
2023/10/10 07:18:04;;;;;;;16.80;4.83;;;;;;;9.91;58.31;101044.11;125551;1099;101881;-74
2023/10/10 07:23:37;;;;;;;20.20;5.30;;;;;;;10.11;58.44;101038.88;124739;1102;104166;-79
2023/10/10 07:26:18;;;;;;;23.20;5.83;;;;;;;10.21;57.81;101048.98;125053;1099;102225;-76
2023/10/10 07:28:53;;;;;;;14.07;4.90;;;;;;;10.33;57.80;101046.95;125234;1099;104194;-80
2023/10/10 07:31:25;;;;;;;18.40;4.60;;;;;;;10.51;57.46;101056.47;124932;1099;101868;-79
2023/10/10 07:34:03;;;;;;;11.37;4.40;;;;;;;10.68;57.71;101062.47;125593;1099;102089;-79
2023/10/10 07:36:36;;;;;;;16.47;4.83;;;;;;;10.79;57.51;101055.95;124751;1102;104181;-76
2023/10/10 07:42:08;;;;;;;18.27;5.40;;;;;;;11.14;56.93;101054.85;125732;1099;104270;-76
2023/10/10 07:45:17;;;;;;;14.23;4.40;;;;;;;11.25;56.75;101057.02;126217;1098;104310;-78
2023/10/10 07:51:06;;;;;;;16.90;4.15;;;;;;;11.43;56.37;101055.15;126002;1099;104386;-78
2023/10/10 07:53:48;;;;;;;;;;;;;;;11.47;55.28;101056.19;126483;1098;101938;-77
2023/10/10 07:56:21;;;;;;;11.73;4.30;;;;;;;11.46;55.40;101055.27;125523;1099;101935;-79
2023/10/10 07:58:56;;;;;;;10.90;3.83;;;;;;;11.46;55.26;101052.64;125184;1099;102709;-76
2023/10/10 08:01:28;;;;;;;13.50;4.83;;;;;;;11.46;54.88;101047.39;125119;1099;101958;-77
2023/10/10 08:04:04;;;;;;;10.57;3.73;;;;;;;11.57;54.51;101052.20;126213;1098;104153;-77
2023/10/10 08:06:38;;;;;;;14.93;4.07;;;;;;;11.65;54.22;101053.39;125464;1099;102157;-74
2023/10/10 08:09:21;;;;;;;10.68;3.65;;;;;;;11.71;53.74;101051.02;125025;1099;104366;-77
2023/10/10 08:11:55;;;;;;;16.00;4.00;;;;;;;11.72;53.62;101055.45;124808;1099;104291;-74
2023/10/10 08:14:31;;;;;;;12.97;3.73;;;;;;;11.76;53.85;101052.08;124544;1099;104363;-76
2023/10/10 08:17:18;;;;;;;10.70;3.77;;;;;;;11.81;53.19;101061.07;125766;1098;104342;-76
2023/10/10 08:19:53;;;;;;;9.68;3.47;;;;;;;11.90;52.99;101059.63;125342;1099;102022;-76
2023/10/10 08:22:26;;;;;;;14.17;3.60;;;;;;;11.93;51.59;101054.52;126261;1098;101854;-79
2023/10/10 08:25:02;;;;;;;15.80;3.77;;;;;;;11.93;52.24;101059.78;125376;1099;102106;-77
2023/10/10 08:27:41;;;;;;;6.83;3.40;;;;;;;12.04;52.21;101074.24;124734;1099;104169;-78
2023/10/10 08:30:17;;;;;;;9.17;3.70;;;;;;;12.09;51.45;101064.81;124897;1099;107553;-77
2023/10/10 08:32:51;;;;;;;10.05;3.50;;;;;;;12.14;51.06;101064.96;124797;1099;101904;-78
2023/10/10 08:35:22;;;;;;;;;;;;;;;12.16;50.17;101073.83;125187;1099;103680;-76
2023/10/10 08:37:54;;;;;;;9.83;3.43;;;;;;;12.04;49.98;101064.64;124190;1099;104290;-73
2023/10/10 08:40:31;;;;;;;9.43;3.40;;;;;;;11.92;50.58;101057.95;124465;1098;104436;-73
2023/10/10 08:43:09;;;;;;;9.45;3.40;;;;;;;11.82;49.83;101054.95;124455;1098;104309;-72
2023/10/10 08:45:54;;;;;;;9.87;3.40;;;;;;;11.79;50.20;101057.47;124431;1099;101892;-74
2023/10/10 08:48:28;;;;;;;10.73;3.23;;;;;;;11.93;49.53;101054.52;125023;1099;102103;-76
2023/10/10 08:51:03;;;;;;;8.48;3.42;;;;;;;12.07;49.47;101066.47;124472;1099;104159;-72
2023/10/10 08:53:42;;;;;;;13.30;3.20;;;;;;;12.09;49.32;101056.01;125873;1099;104242;-72
2023/10/10 08:56:15;;;;;;;10.10;3.20;;;;;;;12.02;48.44;101061.03;124841;1098;104216;-75
2023/10/10 08:58:46;;;;;;;8.63;3.40;;;;;;;11.93;48.88;101062.41;126160;1098;101929;-83
2023/10/10 09:01:18;;;;;;;12.00;3.00;;;;;;;11.96;48.76;101055.53;126450;1098;101822;-80
2023/10/10 09:03:49;;;;;;;11.20;3.07;;;;;;;12.05;48.38;101055.00;125293;1099;104265;-78
2023/10/10 09:06:36;;;;;;;7.97;3.30;;;;;;;12.12;48.84;101061.39;125217;1099;102019;-74
2023/10/10 09:12:02;;;;;;;8.30;3.00;;;;;;;12.38;47.91;101076.42;124552;1099;104322;-74
2023/10/10 09:14:43;;;;;;;8.37;3.00;;;;;;;12.55;47.73;101073.53;125375;1098;101823;-73
2023/10/10 09:17:29;;;;;;;7.70;3.10;;;;;;;12.58;47.16;101066.63;124425;1099;104169;-76
2023/10/10 09:20:17;;;;;;;9.80;3.30;;;;;;;12.83;47.13;101059.63;124255;1099;104207;-76
2023/10/10 09:22:51;;;;;;;8.23;2.97;;;;;;;13.09;46.61;101051.75;125208;1099;102023;-77
2023/10/10 09:25:26;;;;;;;6.72;3.10;;;;;;;13.34;45.68;101055.22;124936;1099;104227;-79
2023/10/10 09:28:03;;;;;;;8.63;2.93;;;;;;;13.48;46.07;101054.84;125275;1099;104213;-76
2023/10/10 09:30:40;;;;;;;8.10;2.97;;;;;;;13.68;45.72;101053.68;124848;1099;101982;-76
2023/10/10 09:33:22;;;;;;;7.63;3.27;;;;;;;13.87;45.64;101045.52;125169;1099;102591;-79
2023/10/10 09:35:58;;;;;;;9.73;3.23;;;;;;;14.02;44.76;101053.91;126278;1098;104294;-75
2023/10/10 09:38:35;;;;;;;7.67;3.00;;;;;;;14.11;44.24;101055.91;125124;1099;101948;-74
2023/10/10 09:41:27;;;;;;;8.00;3.23;;;;;;;14.15;44.55;101056.91;124856;1099;102754;-74
2023/10/10 09:44:53;;;;;;;8.60;3.30;;;;;;;14.11;44.32;101065.58;124775;1099;101922;-75
2023/10/10 09:53:19;;;;;;;6.63;3.23;;;;;;;13.72;44.21;101052.95;124293;1099;104162;-73
2023/10/10 09:55:54;;;;;;;6.90;3.43;;;;;;;13.72;44.15;101052.95;124691;1099;104226;-72
2023/10/10 09:58:27;;;;;;;7.07;3.33;;;;;;;13.62;44.18;101047.37;124718;1099;101859;-73
2023/10/10 10:01:14;;;;;;;10.43;4.07;;;;;;;13.53;44.21;101041.80;125245;1099;104179;-75
2023/10/10 10:03:59;;;;;;;7.57;3.57;;;;;;;13.50;43.53;101043.45;124333;1099;104342;-74
2023/10/10 10:06:52;;;;;;;8.13;3.77;;;;;;;13.54;43.01;101025.15;124264;1102;102329;-73
2023/10/10 10:10:18;;;;;;;10.00;3.60;;;;;;;13.56;43.02;101035.75;124424;1099;102070;-78
2023/10/10 10:13:13;;;;;;;9.67;3.97;;;;;;;13.68;43.70;101028.23;125165;1099;102013;-78
2023/10/10 10:16:15;;;;;;;7.63;3.60;;;;;;;13.87;44.05;101029.69;126291;1098;104242;-73
2023/10/10 10:18:52;;;;;;;12.03;3.90;;;;;;;13.98;43.63;101028.26;125380;1099;102080;-78
2023/10/10 10:21:32;;;;;;;10.23;4.23;;;;;;;14.12;43.40;101023.40;124807;1099;104227;-83
2023/10/10 10:27:22;;;;;;;11.07;3.87;;;;;;;14.41;43.28;101030.37;127396;1098;101472;-83
2023/10/10 10:30:07;;;;;;;13.70;4.20;;;;;;;14.49;43.14;101021.83;126487;1098;104356;-82
2023/10/10 10:32:42;;;;;;;8.90;3.90;;;;;;;14.54;41.95;101011.39;124884;1099;104256;-78
2023/10/10 10:35:25;;;;;;;11.50;3.97;;;;;;;14.41;41.41;101019.80;125450;1099;104337;-79
2023/10/10 10:38:06;;;;;;;10.97;4.17;;;;;;;14.23;41.39;101018.44;125222;1098;104316;-79
2023/10/10 10:40:48;;;;;;;11.57;4.13;;;;;;;14.06;41.74;101011.77;125478;1099;104160;-78
2023/10/10 10:43:34;;;;;;;9.30;4.20;;;;;;;14.09;42.33;101019.78;126292;1098;102154;-75
2023/10/10 10:46:15;;;;;;;10.17;4.03;;;;;;;13.96;41.55;101007.95;125649;1098;104102;-77
2023/10/10 10:49:05;;;;;;;8.33;4.10;;;;;;;13.88;41.41;101012.98;125147;1099;104175;-75
2023/10/10 10:51:42;;;;;;;12.63;4.20;;;;;;;14.07;42.48;101010.91;125054;1099;102141;-75
2023/10/10 10:54:35;;;;;;;9.73;3.97;;;;;;;14.18;41.79;101007.74;125089;1099;104192;-75
2023/10/10 10:57:27;;;;;;;10.60;3.90;;;;;;;14.28;41.61;101010.65;124471;1099;102639;-76
2023/10/10 11:00:20;;;;;;;9.97;4.03;;;;;;;14.16;41.03;101022.66;124955;1099;102015;-79
2023/10/10 11:03:09;;;;;;;9.60;4.63;;;;;;;14.03;41.63;101020.48;125022;1099;104165;-75
2023/10/10 11:05:53;;;;;;;12.63;4.30;;;;;;;14.10;40.77;101026.83;124866;1099;104159;-74
2023/10/10 11:11:27;;;;;;;13.15;4.40;;;;;;;14.34;41.49;101014.35;124973;1099;102264;-74
2023/10/10 11:14:09;;;;;;;14.33;4.90;;;;;;;14.55;41.20;100994.67;124587;1099;104277;-74
2023/10/10 11:16:45;;;;;;;11.93;4.03;;;;;;;14.78;41.22;101007.66;124454;1099;101856;-76
2023/10/10 11:19:38;;;;;;;11.77;4.33;;;;;;;14.89;40.26;101014.11;124545;1102;101839;-75
2023/10/10 11:22:38;;;;;;;11.03;4.63;;;;;;;14.70;40.87;101010.09;125766;1099;101719;-74
2023/10/10 11:25:11;;;;;;;10.37;4.50;;;;;;;14.62;41.33;101006.35;125387;1099;101971;-76
2023/10/10 11:27:48;;;;;;;12.23;4.13;;;;;;;14.72;40.95;101017.21;124800;1099;104332;-74
2023/10/10 11:30:28;;;;;;;9.67;3.90;;;;;;;14.64;40.47;101016.08;125220;1099;102074;-76
2023/10/10 11:33:16;;;;;;;12.53;4.33;;;;;;;14.52;40.27;101015.71;125097;1099;104197;-76
2023/10/10 11:36:01;;;;;;;13.47;4.40;;;;;;;14.36;41.09;101015.28;125010;1099;102237;-77
2023/10/10 11:38:37;;;;;;;13.40;4.27;;;;;;;14.24;40.83;101024.59;124747;1102;104260;-77
2023/10/10 11:41:09;;;;;;;9.80;4.10;;;;;;;14.14;40.51;101029.61;124521;1099;101928;-77
2023/10/10 11:44:07;;;;;;;8.30;3.87;;;;;;;14.06;40.80;101019.69;125560;1098;104230;-78
2023/10/10 11:46:42;;;;;;;10.93;4.27;;;;;;;13.93;40.11;101024.59;125364;1099;104303;-80
2023/10/10 11:49:21;;;;;;;11.55;3.70;;;;;;;13.86;40.21;101027.88;126370;1098;102032;-80
2023/10/10 11:51:55;;;;;;;12.13;4.10;;;;;;;13.87;40.79;101026.13;126836;1098;102049;-78
2023/10/10 11:54:46;;;;;;;17.20;4.90;;;;;;;13.90;39.93;101035.05;125777;1099;102036;-80
2023/10/10 11:57:18;;;;;;;11.60;4.20;;;;;;;13.86;40.50;101038.44;126723;1098;101789;-78
2023/10/10 11:59:49;;;;;;;9.83;3.90;;;;;;;13.78;39.78;101037.31;126405;1098;102348;-78
2023/10/10 12:02:29;;;;;;;11.83;3.80;;;;;;;13.72;40.30;101040.64;126996;1098;101804;-82
2023/10/10 12:05:15;;;;;;;11.33;3.93;;;;;;;13.73;40.35;101041.53;126158;1099;117825;-78
2023/10/10 12:07:53;;;;;;;14.47;4.00;;;;;;;13.69;40.48;101037.91;125871;1099;102054;-79
2023/10/10 12:10:47;;;;;;;12.43;3.93;;;;;;;13.70;40.96;101037.07;126414;1098;104176;-82
2023/10/10 12:13:33;;;;;;;9.53;3.90;;;;;;;13.75;40.50;101037.22;126478;1098;102039;-83
2023/10/10 12:16:10;;;;;;;9.73;3.93;;;;;;;13.78;40.60;101032.03;126331;1098;101839;-79
2023/10/10 12:18:52;;;;;;;7.33;3.40;;;;;;;13.78;40.88;101034.67;126507;1098;104165;-85
2023/10/10 12:21:26;;;;;;;9.30;3.97;;;;;;;13.76;40.50;101031.98;127067;1098;102411;-89
2023/10/10 12:24:00;;;;;;;8.03;3.60;;;;;;;13.80;40.62;101032.97;126544;1098;101771;-81
2023/10/10 12:26:45;;;;;;;11.17;3.73;;;;;;;13.75;39.88;101034.58;126028;1099;101806;-81
2023/10/10 12:29:40;;;;;;;7.53;3.47;;;;;;;13.70;40.06;101036.16;125082;1099;101922;-81
2023/10/10 12:32:18;;;;;;;8.40;4.00;;;;;;;13.60;40.09;101038.53;126651;1098;102275;-79
2023/10/10 12:35:33;;;;;;;;;;;;;;;;;;;;;
2023/10/10 12:38:07;;;;;;;6.37;3.40;;;;;;;13.50;40.02;101036.43;125947;1098;104180;-85
2023/10/10 12:41:11;;;;;;;12.20;3.97;;;;;;;13.47;39.64;101038.97;126100;1099;104227;-82
2023/10/10 12:43:53;;;;;;;7.63;3.53;;;;;;;13.40;39.96;101035.25;125932;1099;104277;-87
2023/10/10 12:47:17;;;;;;;10.20;3.43;;;;;;;13.34;39.77;101039.40;126661;1099;104220;-88
2023/10/10 12:50:04;;;;;;;12.63;3.50;;;;;;;13.20;39.71;101031.91;126276;1098;103201;-83
2023/10/10 12:53:03;;;;;;;9.50;3.33;;;;;;;13.08;39.33;101037.66;126217;1099;104224;-81
2023/10/10 12:55:46;;;;;;;13.30;4.00;;;;;;;13.01;39.71;101033.04;125673;1099;102305;-81
2023/10/10 12:58:22;;;;;;;7.27;3.50;;;;;;;13.03;40.09;101025.19;126462;1098;101823;-78
2023/10/10 13:00:56;;;;;;;17.50;4.40;;;;;;;13.06;40.29;101031.45;125554;1099;102154;-77
2023/10/10 13:03:47;;;;;;;12.40;3.97;;;;;;;13.07;40.06;101032.33;125374;1099;102061;-79
2023/10/10 13:06:30;;;;;;;8.30;3.70;;;;;;;13.09;39.53;101035.94;125065;1102;104073;-81
2023/10/10 13:09:16;;;;;;;7.93;3.93;;;;;;;13.05;39.94;101039.30;125700;1099;102056;-80
2023/10/10 13:11:48;;;;;;;12.33;3.90;;;;;;;12.97;39.65;101032.88;126258;1099;104217;-87
2023/10/10 13:14:24;;;;;;;11.53;3.70;;;;;;;12.85;39.56;101035.97;126275;1098;101935;-82
2023/10/10 13:17:13;;;;;;;13.83;4.67;;;;;;;12.77;39.57;101030.44;125531;1099;104050;-84
2023/10/10 13:19:52;;;;;;;17.27;4.80;;;;;;;12.75;39.65;101038.28;125002;1098;104166;-78
2023/10/10 13:22:23;;;;;;;18.57;5.00;;;;;;;12.81;40.07;101041.96;125648;1099;104238;-75
2023/10/10 13:24:55;;;;;;;13.00;4.40;;;;;;;12.84;39.78;101045.62;125276;1099;104172;-85
2023/10/10 13:27:27;;;;;;;18.87;4.90;;;;;;;12.86;39.84;101028.12;124802;1102;103141;-76
2023/10/10 13:29:59;;;;;;;10.23;4.27;;;;;;;12.89;39.73;101032.61;125070;1099;104242;-77
2023/10/10 13:32:31;;;;;;;15.30;5.03;;;;;;;12.90;39.50;101037.94;125205;1098;101985;-78
2023/10/10 13:35:05;;;;;;;11.20;4.07;;;;;;;12.89;39.34;101041.41;125380;1099;102655;-81
2023/10/10 13:37:41;;;;;;;14.45;4.20;;;;;;;12.84;39.84;101050.89;124950;1099;104156;-81
2023/10/10 13:40:21;;;;;;;15.40;3.93;;;;;;;12.80;39.33;101062.14;125385;1099;102033;-80
2023/10/10 13:42:52;;;;;;;15.13;4.87;;;;;;;12.77;39.29;101054.13;125467;1099;104249;-77
2023/10/10 13:45:29;;;;;;;11.37;4.23;;;;;;;12.74;39.80;101049.64;126332;1098;101784;-79
2023/10/10 13:48:04;;;;;;;9.70;3.77;;;;;;;12.72;39.64;101046.07;125140;1099;104203;-77
2023/10/10 13:50:44;;;;;;;8.47;4.23;;;;;;;12.72;40.02;101050.45;125463;1099;102086;-77
2023/10/10 13:53:17;;;;;;;14.50;3.90;;;;;;;12.73;40.21;101060.13;126206;1098;101981;-77
2023/10/10 13:55:48;;;;;;;22.50;5.13;;;;;;;12.71;40.17;101053.91;124808;1099;102327;-75
2023/10/10 13:58:22;;;;;;;14.43;4.57;;;;;;;12.67;40.15;101059.90;124992;1099;102038;-78
2023/10/10 14:00:55;;;;;;;12.83;4.33;;;;;;;12.64;40.20;101060.70;124941;1099;101948;-75
2023/10/10 14:03:29;;;;;;;13.77;4.50;;;;;;;12.65;40.23;101056.33;125152;1099;101811;-77
2023/10/10 14:06:03;;;;;;;16.10;4.37;;;;;;;12.63;40.36;101058.91;125133;1099;101994;-77
2023/10/10 14:08:33;;;;;;;;;;;;;;;12.62;39.93;101064.11;125409;1099;102083;-76
2023/10/10 14:11:07;;;;;;;10.83;4.30;;;;;;;12.58;40.25;101065.75;124879;1099;104265;-76